Pagrindinis puslapis
METAR-TAF:

METAR-TAF

Oro uostai :

Rerusas, Norvegija

platuma: 62-35N, ilguma: 011-21E, Aukštis: 626 m

Dabartinis oras

Ataskaita buvo paskelbta 49 minutes, ne 21:20 UTC
Vėjas 3 kt iš Rytų/Pietryčių, svyruoja nuo Šiaurės Rytų ir Pietų
Temperatūra 11°C
Drėgmė 71%
Slėgis 1010 hPa
Matomumas 10 km arba daugiau

METAR: ENRO 162120Z AUTO 11003KT 040V180 9999 BKN027/// OVC045/// 11/06 Q1010

Laikas: 00:09 (22:09 UTC)

Prognozė

Ataskaita buvo paskelbta 14 valandos ir 9 minutes, ne 08:00 UTC
Prognozė galioja nuo 16 metu 09 UTC su 16 metu 18 UTC
Vėjas 8 kt iš Pietų/Pietryčių
Matomumas 10 km arba daugiau
Mažai debesys ne aukštis 1400 ft
Išsisklaidę debesys ne aukštis 2000 ft, aukštai iškilę kamuoliniai debesys.
Su prošvaistėmis ne aukštis 3000 ft
Laikinai
nuo 16 metu 09 UTC su 16 metu 11 UTC
Su prošvaistėmis ne aukštis 1000 ft

TAF: ENRO 160800Z 1609/1618 16008KT 9999 FEW014 SCT020TCU BKN030 TEMPO 1609/1611 BKN010

Orai ataskaitas ir orų prognozės (METAR, TAF).

turimą stotys yra geltonos ir raudonos taškus žemėlapyje.

Perkelti pele per norėdami pamatyti stoties vardą.

Tada spustelėkite, norėdami matyti oro stebėjimo ir prognozės.

Norėdami pakeisti žemėlapį: spustelėkite ant žalios mygtukų su juodo kryžiaus žemyn,; žalią mygtuką su brūkšneliu, jei norite nutolinti; arba žalių rodyklių gretimoms žemėlapius.


METAR-TAF: